Statesboro, Georgia
Current Conditions -  °F | °C
As of 11:15 AM on Thursday 30 Oct 2014 (Local Time) from KTBR Reporting Station
Overcast Overcast  
Wind Chill: 63°   Ceiling: 1900
Heat Index: 63°   Visibility: 10mi
Dew Point: 54°   Wind: 3mph
Humidity: 72%   Direction: 50°NE
Pressure: 30.03"   Gusts: NA
Location:  32.45°N, 81.78°W
Report Text: KTBR 301515Z AUTO 05003KT 10SM OVC019 17/12 A3003 RMK AO2 T01730122
Loading
Personal Weather Stations






























Interactive Weather Map
Tropical Storm Tracking
New forecast layout! Learn more

10-Day Weather Forecast

Advertisements
Track Severe Weather on mobile